createdAt,value
2022-11-20T00:01:25.120Z,22.00
2022-11-20T00:03:53.976Z,21.90
2022-11-20T00:06:22.913Z,25.05
2022-11-20T00:08:50.674Z,26.33
2022-11-20T00:11:23.437Z,24.95
2022-11-20T00:13:53.666Z,25.90
2022-11-20T00:16:24.264Z,24.63
2022-11-20T00:18:52.918Z,26.58
2022-11-20T00:21:25.924Z,24.92
2022-11-20T00:23:55.684Z,24.25
2022-11-20T00:26:25.014Z,20.98
2022-11-20T00:28:56.126Z,23.50
2022-11-20T00:31:24.050Z,27.23
2022-11-20T00:33:51.753Z,25.80
2022-11-20T00:36:21.889Z,27.25
2022-11-20T00:38:53.575Z,24.45
2022-11-20T00:41:21.499Z,24.92
2022-11-20T00:43:48.841Z,27.65
2022-11-20T00:46:19.242Z,24.60
2022-11-20T00:48:47.261Z,27.58
2022-11-20T00:51:17.648Z,26.27
2022-11-20T00:53:45.865Z,25.23
2022-11-20T00:56:16.061Z,23.73
2022-11-20T00:58:45.280Z,27.95
2022-11-20T01:01:21.362Z,24.70
2022-11-20T01:03:51.065Z,25.80
2022-11-20T01:06:24.139Z,27.77
2022-11-20T01:08:54.682Z,26.60
2022-11-20T01:11:30.796Z,25.77
2022-11-20T01:13:59.781Z,24.67
2022-11-20T01:16:30.237Z,24.67
2022-11-20T01:18:59.717Z,24.30
2022-11-20T01:21:35.844Z,25.00
2022-11-20T01:24:04.985Z,25.40
2022-11-20T01:26:34.624Z,24.58
2022-11-20T01:29:03.272Z,27.60
2022-11-20T01:31:39.669Z,26.80
2022-11-20T01:34:10.809Z,23.83
2022-11-20T01:36:39.301Z,23.98
2022-11-20T01:39:11.157Z,25.35
2022-11-20T01:41:57.286Z,25.05
2022-11-20T01:44:48.284Z,25.38
2022-11-20T01:47:38.230Z,21.38
2022-11-20T01:52:44.026Z,26.83
2022-11-20T01:55:19.001Z,23.02
2022-11-20T01:57:47.970Z,24.35
2022-11-20T02:00:17.979Z,25.15
2022-11-20T02:05:42.097Z,22.50
2022-11-20T02:08:09.663Z,21.38
2022-11-20T02:10:37.021Z,24.83
2022-11-20T02:13:23.298Z,23.42
2022-11-20T02:15:50.768Z,25.20
2022-11-20T02:18:20.809Z,24.80
2022-11-20T02:20:51.503Z,24.25
2022-11-20T02:23:34.524Z,23.30
2022-11-20T02:26:06.132Z,20.85
2022-11-20T02:28:33.809Z,19.63
2022-11-20T02:31:02.340Z,20.67
2022-11-20T02:33:29.799Z,23.08
2022-11-20T02:35:57.102Z,18.85
2022-11-20T02:38:24.547Z,23.20
2022-11-20T02:40:55.503Z,22.35
2022-11-20T02:43:24.473Z,19.70
2022-11-20T02:45:51.893Z,24.52
2022-11-20T02:48:19.193Z,24.58
2022-11-20T02:50:46.506Z,26.50
2022-11-20T02:53:13.809Z,23.65
2022-11-20T02:55:41.188Z,23.35
2022-11-20T02:58:08.601Z,23.60
2022-11-20T03:00:36.516Z,23.27
2022-11-20T03:03:03.893Z,15.90
2022-11-20T03:05:31.172Z,15.63
2022-11-20T03:07:58.462Z,19.65
2022-11-20T03:10:25.912Z,19.85
2022-11-20T03:12:56.778Z,23.30
2022-11-20T03:15:24.891Z,21.35
2022-11-20T03:17:56.705Z,17.30
2022-11-20T03:20:24.318Z,21.35
2022-11-20T03:22:51.685Z,22.05
2022-11-20T03:25:18.980Z,22.25
2022-11-20T03:27:46.329Z,22.77
2022-11-20T03:30:14.442Z,23.98
2022-11-20T03:32:41.876Z,16.50
2022-11-20T03:35:09.778Z,22.13
2022-11-20T03:37:37.038Z,23.40
2022-11-20T03:40:05.133Z,23.35
2022-11-20T03:42:47.454Z,23.02
2022-11-20T03:45:17.891Z,16.65
2022-11-20T03:47:45.869Z,20.60
2022-11-20T03:50:14.903Z,20.15
2022-11-20T03:52:42.821Z,22.37
2022-11-20T03:55:10.719Z,24.00
2022-11-20T03:57:37.998Z,21.80
2022-11-20T04:00:06.453Z,21.00
2022-11-20T04:02:33.762Z,20.77
2022-11-20T04:05:01.104Z,20.85
2022-11-20T04:07:28.392Z,23.20
2022-11-20T04:09:55.678Z,22.73
2022-11-20T04:12:22.970Z,22.90
2022-11-20T04:14:50.264Z,18.60
2022-11-20T04:17:17.653Z,22.17
2022-11-20T04:19:44.878Z,22.65
2022-11-20T04:22:13.210Z,21.70
2022-11-20T04:24:40.493Z,21.25
2022-11-20T04:27:07.838Z,21.75
2022-11-20T04:29:35.173Z,20.73
2022-11-20T04:32:02.530Z,21.70
2022-11-20T04:34:29.906Z,21.67
2022-11-20T04:36:57.291Z,22.33
2022-11-20T04:39:24.778Z,19.85
2022-11-20T04:42:14.959Z,19.42
2022-11-20T04:44:42.269Z,24.02
2022-11-20T04:47:09.556Z,23.35
2022-11-20T04:49:37.002Z,24.33
2022-11-20T04:52:04.385Z,18.27
2022-11-20T04:54:31.685Z,22.85
2022-11-20T04:56:59.068Z,25.55
2022-11-20T04:59:26.368Z,21.25
2022-11-20T05:01:53.946Z,20.05
2022-11-20T05:04:21.288Z,22.48
2022-11-20T05:06:49.034Z,22.65
2022-11-20T05:09:16.446Z,24.67
2022-11-20T05:11:44.843Z,23.52
2022-11-20T05:14:14.489Z,22.63
2022-11-20T05:16:41.959Z,23.00
2022-11-20T05:19:09.716Z,24.58
2022-11-20T05:21:36.993Z,22.67
2022-11-20T05:24:04.405Z,24.33
2022-11-20T05:26:31.671Z,27.05
2022-11-20T05:28:59.014Z,22.38
2022-11-20T05:31:27.992Z,24.70
2022-11-20T05:33:57.122Z,23.67
2022-11-20T05:36:24.860Z,25.05
2022-11-20T05:38:55.520Z,23.45
2022-11-20T05:41:26.090Z,23.48
2022-11-20T05:43:53.496Z,23.38
2022-11-20T05:46:27.920Z,22.42
2022-11-20T05:48:56.760Z,23.45
2022-11-20T05:51:24.515Z,22.85
2022-11-20T05:53:51.994Z,21.08
2022-11-20T05:56:21.408Z,20.50
2022-11-20T05:58:49.983Z,22.35
2022-11-20T06:01:21.553Z,20.25
2022-11-20T06:03:51.412Z,19.40
2022-11-20T06:06:19.936Z,21.80
2022-11-20T06:08:48.108Z,17.98
2022-11-20T06:11:17.187Z,22.80
2022-11-20T06:13:45.520Z,26.27
2022-11-20T06:16:15.343Z,25.92
2022-11-20T06:18:42.714Z,22.85
2022-11-20T06:21:18.861Z,21.50
2022-11-20T06:23:47.487Z,17.83
2022-11-20T06:26:25.002Z,20.73
2022-11-20T06:28:53.840Z,20.02
2022-11-20T06:31:24.197Z,21.88
2022-11-20T06:33:51.957Z,20.73
2022-11-20T06:36:22.399Z,18.83
2022-11-20T06:38:50.039Z,19.58
2022-11-20T06:41:20.040Z,21.42
2022-11-20T06:46:18.585Z,15.32
2022-11-20T06:48:46.639Z,19.90
2022-11-20T06:51:13.978Z,18.80
2022-11-20T06:53:41.605Z,21.20
2022-11-20T06:56:09.591Z,21.95
2022-11-20T06:58:37.902Z,30.88
2022-11-20T07:01:11.260Z,20.70
2022-11-20T07:03:39.544Z,13.38
2022-11-20T07:06:07.534Z,19.63
2022-11-20T07:08:35.572Z,17.85
2022-11-20T07:11:05.795Z,17.30
2022-11-20T07:13:33.321Z,19.45
2022-11-20T07:16:02.520Z,19.35
2022-11-20T07:18:30.087Z,26.08
2022-11-20T07:21:00.526Z,20.80
2022-11-20T07:23:27.813Z,18.77
2022-11-20T07:25:55.110Z,20.55
2022-11-20T07:28:22.465Z,20.88
2022-11-20T07:30:54.001Z,21.70
2022-11-20T07:33:21.513Z,18.98
2022-11-20T07:35:48.828Z,18.27
2022-11-20T07:38:16.179Z,17.88
2022-11-20T07:40:43.540Z,19.23
2022-11-20T07:43:10.833Z,22.02
2022-11-20T07:45:38.188Z,16.88
2022-11-20T07:48:05.733Z,17.88
2022-11-20T07:50:33.045Z,19.48
2022-11-20T07:53:06.953Z,16.88
2022-11-20T07:55:34.568Z,18.92
2022-11-20T07:58:01.967Z,17.85
2022-11-20T08:00:29.370Z,15.20
2022-11-20T08:02:56.778Z,17.20
2022-11-20T08:05:24.299Z,17.33
2022-11-20T08:07:51.658Z,18.73
2022-11-20T08:10:19.373Z,15.38
2022-11-20T08:13:14.278Z,15.48
2022-11-20T08:15:41.942Z,15.60
2022-11-20T08:21:05.005Z,19.05
2022-11-20T08:23:32.731Z,17.80
2022-11-20T08:26:00.204Z,17.80
2022-11-20T08:28:27.561Z,13.93
2022-11-20T08:31:02.081Z,14.68
2022-11-20T08:33:29.982Z,11.20
2022-11-20T08:36:02.049Z,13.10
2022-11-20T08:38:30.175Z,17.48
2022-11-20T08:41:20.235Z,13.77
2022-11-20T08:43:47.581Z,13.73
2022-11-20T08:46:14.889Z,15.15
2022-11-20T08:48:42.339Z,16.45
2022-11-20T08:51:10.248Z,12.85
2022-11-20T08:53:37.624Z,17.27
2022-11-20T08:56:05.302Z,13.98
2022-11-20T08:58:48.835Z,13.35
2022-11-20T09:01:21.776Z,14.02
2022-11-20T09:03:49.222Z,12.60
2022-11-20T09:06:16.668Z,16.05
2022-11-20T09:08:44.226Z,15.73
2022-11-20T09:11:12.218Z,16.77
2022-11-20T09:13:39.533Z,16.52
2022-11-20T09:16:09.430Z,12.05
2022-11-20T09:18:38.325Z,14.00
2022-11-20T09:21:08.209Z,12.07
2022-11-20T09:26:21.951Z,15.07
2022-11-20T09:28:52.868Z,14.77
2022-11-20T09:31:27.227Z,13.63
2022-11-20T09:33:54.543Z,16.52
2022-11-20T09:36:21.992Z,9.93
2022-11-20T09:38:49.870Z,11.68
2022-11-20T09:41:17.093Z,13.35
2022-11-20T09:43:53.368Z,12.38
2022-11-20T09:46:54.500Z,14.80
2022-11-20T09:49:41.960Z,15.05
2022-11-20T09:52:30.723Z,12.75
2022-11-20T09:54:58.589Z,10.23
2022-11-20T09:57:41.663Z,13.55
2022-11-20T10:00:14.107Z,15.07
2022-11-20T10:02:56.570Z,15.82
2022-11-20T10:05:32.847Z,14.57
2022-11-20T10:08:00.338Z,13.55
2022-11-20T10:10:43.810Z,13.13
2022-11-20T10:13:36.267Z,13.75
2022-11-20T10:16:22.183Z,13.10
2022-11-20T10:19:01.201Z,13.63
2022-11-20T10:21:39.301Z,8.70
2022-11-20T10:24:44.163Z,10.38
2022-11-20T10:27:30.273Z,10.30
2022-11-20T10:30:10.733Z,12.05
2022-11-20T10:32:42.117Z,13.20
2022-11-20T10:35:36.235Z,13.30
2022-11-20T10:38:27.289Z,13.27
2022-11-20T10:41:20.409Z,12.23
2022-11-20T10:43:49.276Z,8.98
2022-11-20T10:46:23.877Z,11.45
2022-11-20T10:48:52.360Z,10.30
2022-11-20T10:51:32.053Z,11.15
2022-11-20T10:54:14.075Z,12.07
2022-11-20T10:56:49.862Z,14.15
2022-11-20T10:59:56.324Z,11.48
2022-11-20T11:02:32.045Z,11.88
2022-11-20T11:05:09.168Z,12.13
2022-11-20T11:07:41.243Z,12.35
2022-11-20T11:10:23.803Z,13.25
2022-11-20T11:12:51.138Z,10.57
2022-11-20T11:15:39.150Z,11.68
2022-11-20T11:18:10.412Z,14.50
2022-11-20T11:20:38.767Z,11.40
2022-11-20T11:23:06.090Z,11.80
2022-11-20T11:25:36.378Z,11.98
2022-11-20T11:28:06.518Z,11.90
2022-11-20T11:30:44.680Z,11.18
2022-11-20T11:33:19.645Z,11.63
2022-11-20T11:35:59.511Z,11.98
2022-11-20T11:38:37.403Z,11.18
2022-11-20T11:41:07.031Z,11.70
2022-11-20T11:43:55.292Z,11.60
2022-11-20T11:46:33.407Z,12.15
2022-11-20T11:49:09.894Z,10.50
2022-11-20T11:51:48.672Z,10.68
2022-11-20T11:54:25.025Z,9.93
2022-11-20T11:56:53.946Z,9.45
2022-11-20T11:59:31.390Z,10.63
2022-11-20T12:02:03.888Z,10.90
2022-11-20T12:04:56.079Z,10.40
2022-11-20T12:07:45.569Z,10.63
2022-11-20T12:10:35.930Z,11.50
2022-11-20T12:13:11.344Z,11.98
2022-11-20T12:15:45.370Z,9.82
2022-11-20T12:18:18.589Z,10.70
2022-11-20T12:21:13.851Z,12.68
2022-11-20T12:24:03.977Z,8.90
2022-11-20T12:26:58.282Z,11.15
2022-11-20T12:29:53.064Z,9.05
2022-11-20T12:32:23.047Z,11.05
2022-11-20T12:38:13.041Z,11.32
2022-11-20T12:40:55.498Z,11.68
2022-11-20T12:43:43.880Z,10.75
2022-11-20T12:46:39.201Z,12.70
2022-11-20T12:49:25.415Z,12.30
2022-11-20T12:52:17.484Z,12.63
2022-11-20T12:55:26.392Z,11.38
2022-11-20T12:58:05.448Z,12.50
2022-11-20T13:00:35.497Z,12.67
2022-11-20T13:06:11.185Z,10.27
2022-11-20T13:08:41.633Z,10.80
2022-11-20T13:11:32.048Z,11.75
2022-11-20T13:13:59.273Z,11.02
2022-11-20T13:16:42.637Z,10.07
2022-11-20T13:19:14.136Z,11.32
2022-11-20T13:21:47.673Z,11.27
2022-11-20T13:24:21.265Z,10.70
2022-11-20T13:26:48.785Z,10.25
2022-11-20T13:29:20.363Z,10.85
2022-11-20T13:31:49.038Z,10.38
2022-11-20T13:34:27.668Z,11.05
2022-11-20T13:36:57.465Z,9.65
2022-11-20T13:39:29.816Z,11.27
2022-11-20T13:42:00.566Z,12.05
2022-11-20T13:44:36.566Z,10.95
2022-11-20T13:47:04.197Z,10.95
2022-11-20T13:49:45.149Z,11.25
2022-11-20T13:52:31.591Z,10.85
2022-11-20T13:55:20.967Z,11.82
2022-11-20T13:58:22.812Z,11.85
2022-11-20T14:01:01.883Z,11.07
2022-11-20T14:03:59.120Z,10.40
2022-11-20T14:06:32.685Z,11.23
2022-11-20T14:09:01.042Z,10.63
2022-11-20T14:11:32.231Z,10.30
2022-11-20T14:14:16.274Z,10.45
2022-11-20T14:16:46.548Z,11.57
2022-11-20T14:19:22.972Z,10.95
2022-11-20T14:22:07.041Z,10.93
2022-11-20T14:24:34.397Z,10.48
2022-11-20T14:27:02.757Z,10.70
2022-11-20T14:29:36.133Z,11.18
2022-11-20T14:32:04.718Z,10.13
2022-11-20T14:34:38.270Z,10.43
2022-11-20T14:37:16.556Z,11.13
2022-11-20T14:39:51.853Z,11.15
2022-11-20T14:42:25.576Z,10.73
2022-11-20T14:44:57.357Z,10.55
2022-11-20T14:47:28.212Z,10.63
2022-11-20T14:49:57.882Z,10.80
2022-11-20T14:52:28.047Z,11.70
2022-11-20T14:55:00.404Z,9.88
2022-11-20T14:57:29.280Z,10.57
2022-11-20T15:00:27.626Z,9.82
2022-11-20T15:02:55.093Z,11.02
2022-11-20T15:05:26.299Z,11.27
2022-11-20T15:08:14.478Z,11.43
2022-11-20T15:10:52.542Z,11.60
2022-11-20T15:13:35.660Z,12.85
2022-11-20T15:16:04.507Z,12.85
2022-11-20T15:18:42.589Z,12.68
2022-11-20T15:21:18.704Z,12.88
2022-11-20T15:23:46.122Z,11.30
2022-11-20T15:26:19.915Z,11.68
2022-11-20T15:28:51.027Z,18.30
2022-11-20T15:31:23.793Z,20.02
2022-11-20T15:33:51.462Z,28.27
2022-11-20T15:36:18.964Z,27.48
2022-11-20T15:38:46.593Z,12.30
2022-11-20T15:41:14.019Z,13.80
2022-11-20T15:43:41.314Z,11.32
2022-11-20T15:46:15.045Z,13.32
2022-11-20T15:48:50.165Z,13.30
2022-11-20T15:51:37.057Z,12.88
2022-11-20T15:54:12.707Z,13.23
2022-11-20T15:56:40.066Z,14.65
2022-11-20T15:59:07.943Z,14.50
2022-11-20T16:01:35.611Z,13.40
2022-11-20T16:04:03.226Z,13.80
2022-11-20T16:06:30.618Z,13.55
2022-11-20T16:08:57.898Z,13.38
2022-11-20T16:11:25.228Z,14.77
2022-11-20T16:14:11.269Z,13.77
2022-11-20T16:16:41.394Z,14.82
2022-11-20T16:19:13.021Z,15.63
2022-11-20T16:21:42.551Z,14.80
2022-11-20T16:24:13.867Z,15.43
2022-11-20T16:26:42.225Z,15.23
2022-11-20T16:29:10.985Z,15.75
2022-11-20T16:31:39.053Z,14.98
2022-11-20T16:34:12.249Z,15.75
2022-11-20T16:36:42.218Z,15.80
2022-11-20T16:39:09.926Z,16.40
2022-11-20T16:41:37.385Z,15.68
2022-11-20T16:44:09.570Z,16.00
2022-11-20T16:46:37.361Z,15.15
2022-11-20T16:49:07.323Z,16.88
2022-11-20T16:54:07.551Z,17.50
2022-11-20T16:56:35.161Z,27.92
2022-11-20T16:59:03.450Z,23.90
2022-11-20T17:01:31.830Z,19.20
2022-11-20T17:04:01.551Z,17.38
2022-11-20T17:06:37.617Z,15.60
2022-11-20T17:09:05.285Z,16.42
2022-11-20T17:11:33.609Z,20.85
2022-11-20T17:14:04.756Z,17.15
2022-11-20T17:16:32.216Z,16.15
2022-11-20T17:19:03.413Z,16.70
2022-11-20T17:21:32.938Z,17.50
2022-11-20T17:24:03.258Z,17.40
2022-11-20T17:26:31.164Z,16.83
2022-11-20T17:29:04.863Z,16.33
2022-11-20T17:31:34.251Z,16.40
2022-11-20T17:34:02.425Z,16.50
2022-11-20T17:36:30.490Z,16.75
2022-11-20T17:38:58.649Z,16.10
2022-11-20T17:41:28.168Z,17.90
2022-11-20T17:43:57.707Z,17.23
2022-11-20T17:46:27.575Z,17.05
2022-11-20T17:48:56.455Z,16.85
2022-11-20T17:51:27.942Z,17.15
2022-11-20T17:54:01.508Z,16.20
2022-11-20T17:56:51.670Z,17.38
2022-11-20T17:59:19.623Z,17.33
2022-11-20T18:01:47.460Z,17.95
2022-11-20T18:04:15.079Z,17.40
2022-11-20T18:06:42.963Z,18.77
2022-11-20T18:09:10.587Z,20.13
2022-11-20T18:11:41.971Z,17.55
2022-11-20T18:14:32.542Z,20.13
2022-11-20T18:17:05.110Z,18.38
2022-11-20T18:19:55.690Z,18.77
2022-11-20T18:22:31.065Z,18.05
2022-11-20T18:24:58.511Z,17.75
2022-11-20T18:27:25.877Z,19.65
2022-11-20T18:29:53.351Z,18.30
2022-11-20T18:32:22.266Z,17.35
2022-11-20T18:34:50.609Z,17.58
2022-11-20T18:37:17.981Z,16.40
2022-11-20T18:39:45.660Z,17.75
2022-11-20T18:42:33.878Z,17.48
2022-11-20T18:45:04.341Z,17.98
2022-11-20T18:47:37.280Z,18.48
2022-11-20T18:50:06.889Z,17.98
2022-11-20T18:52:39.259Z,19.33
2022-11-20T18:55:07.889Z,18.48
2022-11-20T18:57:35.774Z,20.25
2022-11-20T19:00:08.883Z,19.02
2022-11-20T19:02:43.012Z,18.88
2022-11-20T19:05:12.384Z,18.70
2022-11-20T19:07:39.799Z,19.30
2022-11-20T19:10:08.036Z,19.92
2022-11-20T19:12:35.342Z,19.50
2022-11-20T19:15:02.823Z,18.33
2022-11-20T19:17:30.098Z,20.13
2022-11-20T19:19:57.841Z,18.42
2022-11-20T19:22:25.269Z,18.13
2022-11-20T19:24:52.777Z,20.35
2022-11-20T19:27:20.330Z,19.23
2022-11-20T19:29:48.244Z,18.83
2022-11-20T19:32:16.582Z,18.00
2022-11-20T19:34:44.112Z,18.33
2022-11-20T19:37:11.608Z,19.45
2022-11-20T19:39:39.328Z,19.23
2022-11-20T19:42:07.131Z,17.48
2022-11-20T19:44:34.968Z,18.30
2022-11-20T19:47:04.548Z,18.63
2022-11-20T19:49:32.333Z,18.27
2022-11-20T19:51:59.925Z,17.77
2022-11-20T19:54:27.646Z,18.38
2022-11-20T19:56:55.189Z,18.13
2022-11-20T19:59:22.922Z,18.70
2022-11-20T20:01:50.611Z,19.48
2022-11-20T20:04:18.153Z,16.77
2022-11-20T20:06:45.744Z,18.60
2022-11-20T20:09:13.321Z,18.90
2022-11-20T20:11:44.456Z,19.75
2022-11-20T20:14:14.970Z,19.65
2022-11-20T20:16:42.917Z,18.20
2022-11-20T20:19:16.678Z,19.42
2022-11-20T20:21:44.368Z,18.92
2022-11-20T20:24:12.169Z,19.63
2022-11-20T20:26:39.738Z,19.25
2022-11-20T20:29:07.077Z,20.95
2022-11-20T20:31:34.819Z,23.52
2022-11-20T20:34:03.530Z,21.90
2022-11-20T20:36:30.946Z,21.73
2022-11-20T20:39:07.941Z,21.80
2022-11-20T20:41:35.198Z,20.05
2022-11-20T20:44:21.217Z,20.85
2022-11-20T20:46:52.198Z,21.33
2022-11-20T20:49:19.556Z,21.92
2022-11-20T20:51:46.854Z,21.80
2022-11-20T20:54:14.325Z,22.35
2022-11-20T20:56:41.721Z,22.38
2022-11-20T20:59:09.133Z,21.77
2022-11-20T21:01:36.548Z,23.17
2022-11-20T21:04:03.945Z,23.08
2022-11-20T21:06:31.304Z,23.35
2022-11-20T21:08:58.798Z,23.75
2022-11-20T21:11:26.152Z,24.45
2022-11-20T21:13:53.601Z,25.90
2022-11-20T21:16:22.526Z,25.15
2022-11-20T21:18:49.975Z,22.45
2022-11-20T21:21:36.943Z,21.80
2022-11-20T21:24:04.653Z,22.55
2022-11-20T21:26:32.053Z,22.05
2022-11-20T21:28:59.402Z,18.63
2022-11-20T21:31:27.034Z,23.23
2022-11-20T21:33:56.442Z,23.30
2022-11-20T21:36:27.209Z,23.30
2022-11-20T21:38:55.902Z,23.15
2022-11-20T21:41:24.925Z,23.55
2022-11-20T21:44:23.626Z,22.37
2022-11-20T21:46:42.885Z,23.20
2022-11-20T21:49:10.908Z,23.85
2022-11-20T21:51:38.354Z,24.77
2022-11-20T21:54:05.819Z,21.35
2022-11-20T21:56:33.300Z,23.90
2022-11-20T21:59:00.589Z,19.55
2022-11-20T22:01:30.494Z,22.73
2022-11-20T22:04:00.643Z,23.63
2022-11-20T22:06:33.074Z,21.00
2022-11-20T22:09:01.766Z,17.98
2022-11-20T22:11:29.372Z,22.92
2022-11-20T22:14:15.130Z,21.33
2022-11-20T22:16:42.497Z,21.73
2022-11-20T22:19:09.950Z,23.90
2022-11-20T22:21:39.443Z,21.90
2022-11-20T22:24:06.914Z,20.50
2022-11-20T22:26:40.273Z,20.63
2022-11-20T22:29:12.621Z,19.67
2022-11-20T22:31:40.162Z,22.73
2022-11-20T22:34:11.245Z,22.25
2022-11-20T22:36:39.537Z,21.73
2022-11-20T22:39:07.142Z,21.48
2022-11-20T22:41:34.557Z,22.73
2022-11-20T22:44:04.947Z,21.45
2022-11-20T22:46:34.717Z,22.30
2022-11-20T22:49:04.717Z,18.48
2022-11-20T22:51:35.207Z,22.70
2022-11-20T22:54:03.668Z,20.90
2022-11-20T22:56:32.990Z,22.15
2022-11-20T22:59:00.436Z,24.10
2022-11-20T23:01:33.473Z,24.70
2022-11-20T23:04:03.325Z,25.45
2022-11-20T23:06:30.854Z,23.48
2022-11-20T23:08:58.297Z,22.70
2022-11-20T23:11:30.133Z,21.92
2022-11-20T23:14:02.966Z,24.85
2022-11-20T23:16:31.615Z,22.15
2022-11-20T23:19:01.331Z,23.38
2022-11-20T23:21:28.851Z,24.27
2022-11-20T23:23:57.761Z,27.30
2022-11-20T23:26:30.747Z,25.52
2022-11-20T23:28:59.575Z,24.98
2022-11-20T23:31:29.368Z,25.45
2022-11-20T23:33:57.208Z,25.02
2022-11-20T23:36:24.609Z,23.50
2022-11-20T23:38:51.942Z,26.02
2022-11-20T23:41:19.311Z,23.80
2022-11-20T23:43:46.560Z,23.85
2022-11-20T23:46:16.694Z,22.30
2022-11-20T23:48:45.460Z,23.45
2022-11-20T23:51:13.259Z,23.70
2022-11-20T23:53:40.790Z,23.25
2022-11-20T23:56:09.406Z,25.30
2022-11-20T23:58:38.520Z,24.90
